createdAt,value
2019-05-07T00:02:14.277Z,2.33
2019-05-07T00:04:43.946Z,2.20
2019-05-07T00:07:13.818Z,2.10
2019-05-07T00:09:43.521Z,2.20
2019-05-07T00:12:13.191Z,2.40
2019-05-07T00:14:51.656Z,2.00
2019-05-07T00:17:14.330Z,1.87
2019-05-07T00:19:44.009Z,2.13
2019-05-07T00:22:13.667Z,1.90
2019-05-07T00:24:43.377Z,2.03
2019-05-07T00:27:13.248Z,2.13
2019-05-07T00:29:43.106Z,2.40
2019-05-07T00:32:12.886Z,2.20
2019-05-07T00:34:44.208Z,3.13
2019-05-07T00:37:27.837Z,2.00
2019-05-07T00:40:02.781Z,2.03
2019-05-07T00:42:34.264Z,2.80
2019-05-07T00:45:17.006Z,2.20
2019-05-07T00:47:38.275Z,1.87
2019-05-07T00:50:09.731Z,1.83
2019-05-07T00:52:39.459Z,2.10
2019-05-07T00:55:09.205Z,2.87
2019-05-07T00:57:39.132Z,2.17
2019-05-07T01:00:09.778Z,2.00
2019-05-07T01:02:39.500Z,2.43
2019-05-07T01:05:09.523Z,2.50
2019-05-07T01:07:39.311Z,2.10
2019-05-07T01:10:09.623Z,2.07
2019-05-07T01:12:39.348Z,2.60
2019-05-07T01:15:09.278Z,2.50
2019-05-07T01:17:39.021Z,2.57
2019-05-07T01:20:08.776Z,2.07
2019-05-07T01:22:38.446Z,2.20
2019-05-07T01:25:09.055Z,2.20
2019-05-07T01:27:38.733Z,2.53
2019-05-07T01:30:08.933Z,2.67
2019-05-07T01:32:45.978Z,2.30
2019-05-07T01:35:25.869Z,2.00
2019-05-07T01:37:55.534Z,2.47
2019-05-07T01:40:25.294Z,2.70
2019-05-07T01:42:54.963Z,2.53
2019-05-07T01:45:25.125Z,2.37
2019-05-07T01:47:54.927Z,2.47
2019-05-07T01:50:24.611Z,2.37
2019-05-07T01:52:54.274Z,2.33
2019-05-07T01:55:23.952Z,2.13
2019-05-07T01:57:53.623Z,2.57
2019-05-07T02:00:23.378Z,2.33
2019-05-07T02:02:57.911Z,2.17
2019-05-07T02:05:29.258Z,2.70
2019-05-07T02:08:09.782Z,2.23
2019-05-07T02:10:47.221Z,2.80
2019-05-07T02:13:16.885Z,2.97
2019-05-07T02:15:57.262Z,3.00
2019-05-07T02:18:18.015Z,3.10
2019-05-07T02:20:47.709Z,2.53
2019-05-07T02:23:17.390Z,2.73
2019-05-07T02:25:47.083Z,2.63
2019-05-07T02:28:16.751Z,2.90
2019-05-07T02:30:46.424Z,2.83
2019-05-07T02:33:16.177Z,2.37
2019-05-07T02:35:45.840Z,2.50
2019-05-07T02:38:22.809Z,2.50
2019-05-07T02:40:53.604Z,2.60
2019-05-07T02:43:23.356Z,3.03
2019-05-07T02:46:21.566Z,2.57
2019-05-07T02:48:42.564Z,2.60
2019-05-07T02:51:15.425Z,3.00
2019-05-07T02:54:04.875Z,2.70
2019-05-07T02:56:34.554Z,2.63
2019-05-07T02:59:04.385Z,2.43
2019-05-07T03:01:34.050Z,2.57
2019-05-07T03:04:03.823Z,5.00
2019-05-07T03:06:34.225Z,2.43
2019-05-07T03:09:05.992Z,2.70
2019-05-07T03:11:35.850Z,2.43
2019-05-07T03:14:05.594Z,2.70
2019-05-07T03:16:43.514Z,3.13
2019-05-07T03:19:06.915Z,2.80
2019-05-07T03:21:55.289Z,2.70
2019-05-07T03:24:36.709Z,3.17
2019-05-07T03:27:06.472Z,3.07
2019-05-07T03:29:37.851Z,2.60
2019-05-07T03:32:09.182Z,2.63
2019-05-07T03:34:46.437Z,2.73
2019-05-07T03:37:16.439Z,3.20
2019-05-07T03:39:46.182Z,3.50
2019-05-07T03:42:15.921Z,2.30
2019-05-07T03:44:47.240Z,2.27
2019-05-07T03:47:18.555Z,2.30
2019-05-07T03:49:48.603Z,2.70
2019-05-07T03:52:18.440Z,2.57
2019-05-07T03:54:48.139Z,2.73
2019-05-07T03:57:17.814Z,2.70
2019-05-07T03:59:47.687Z,2.47
2019-05-07T04:02:17.341Z,2.43
2019-05-07T04:04:47.029Z,2.50
2019-05-07T04:07:16.723Z,3.00
2019-05-07T04:09:46.486Z,2.83
2019-05-07T04:12:16.153Z,2.40
2019-05-07T04:14:45.910Z,2.90
2019-05-07T04:17:22.217Z,2.90
2019-05-07T04:19:47.167Z,3.30
2019-05-07T04:22:18.655Z,2.73
2019-05-07T04:25:05.196Z,2.73
2019-05-07T04:27:52.704Z,2.43
2019-05-07T04:30:23.497Z,3.30
2019-05-07T04:32:55.120Z,2.97
2019-05-07T04:35:26.439Z,2.40
2019-05-07T04:37:56.142Z,2.43
2019-05-07T04:40:25.829Z,2.80
2019-05-07T04:42:55.502Z,2.73
2019-05-07T04:45:25.184Z,2.93
2019-05-07T04:47:54.851Z,2.17
2019-05-07T04:50:39.544Z,2.67
2019-05-07T04:53:03.164Z,3.97
2019-05-07T04:55:33.632Z,2.40
2019-05-07T04:58:08.266Z,3.17
2019-05-07T05:00:34.825Z,3.00
2019-05-07T05:03:18.257Z,2.80
2019-05-07T05:05:48.068Z,2.83
2019-05-07T05:08:26.478Z,2.40
2019-05-07T05:10:56.166Z,2.33
2019-05-07T05:13:25.848Z,2.50
2019-05-07T05:15:55.810Z,2.50
2019-05-07T05:18:25.655Z,2.40
2019-05-07T05:21:12.190Z,2.50
2019-05-07T05:23:46.195Z,2.33
2019-05-07T05:26:16.154Z,3.00
2019-05-07T05:28:45.883Z,2.50
2019-05-07T05:31:15.580Z,2.60
2019-05-07T05:33:45.246Z,2.40
2019-05-07T05:36:15.007Z,2.60
2019-05-07T05:38:44.809Z,2.83
2019-05-07T05:41:14.499Z,2.70
2019-05-07T05:43:52.714Z,2.63
2019-05-07T05:46:24.209Z,2.30
2019-05-07T05:48:53.902Z,2.40
2019-05-07T05:51:32.212Z,3.30
2019-05-07T05:54:03.735Z,2.03
2019-05-07T05:56:52.023Z,2.20
2019-05-07T05:59:48.118Z,2.50
2019-05-07T06:02:12.153Z,2.33
2019-05-07T06:04:43.765Z,2.60
2019-05-07T06:07:18.178Z,2.50
2019-05-07T06:09:49.657Z,2.60
2019-05-07T06:12:37.266Z,2.63
2019-05-07T06:15:09.658Z,2.20
2019-05-07T06:17:57.222Z,2.37
2019-05-07T06:20:44.975Z,2.27
2019-05-07T06:23:25.078Z,1.93
2019-05-07T06:25:54.774Z,1.87
2019-05-07T06:28:24.513Z,1.93
2019-05-07T06:30:54.209Z,1.93
2019-05-07T06:33:23.878Z,1.90
2019-05-07T06:35:53.689Z,2.10
2019-05-07T06:38:24.501Z,2.10
2019-05-07T06:41:02.667Z,1.77
2019-05-07T06:43:34.187Z,2.00
2019-05-07T06:46:05.160Z,1.80
2019-05-07T06:48:42.522Z,1.60
2019-05-07T06:51:06.293Z,1.97
2019-05-07T06:53:36.004Z,1.80
2019-05-07T06:56:05.812Z,1.73
2019-05-07T06:58:41.927Z,2.40
2019-05-07T07:01:25.421Z,2.00
2019-05-07T07:04:02.916Z,2.63
2019-05-07T07:06:49.426Z,2.00
2019-05-07T07:09:29.986Z,2.67
2019-05-07T07:12:02.081Z,2.47
2019-05-07T07:14:33.146Z,1.97
2019-05-07T07:17:03.046Z,2.40
2019-05-07T07:19:35.985Z,2.10
2019-05-07T07:22:04.618Z,1.93
2019-05-07T07:24:34.450Z,1.73
2019-05-07T07:27:04.380Z,3.10
2019-05-07T07:29:35.786Z,2.13
2019-05-07T07:32:07.225Z,2.10
2019-05-07T07:34:38.581Z,1.77
2019-05-07T07:37:15.166Z,2.23
2019-05-07T07:39:43.028Z,2.40
2019-05-07T07:42:12.794Z,2.00
2019-05-07T07:44:42.671Z,1.60
2019-05-07T07:47:13.051Z,1.90
2019-05-07T07:49:42.943Z,2.10
2019-05-07T07:52:12.631Z,2.70
2019-05-07T07:54:42.963Z,2.00
2019-05-07T07:57:32.439Z,1.80
2019-05-07T08:00:03.559Z,1.63
2019-05-07T08:02:34.885Z,2.07
2019-05-07T08:05:05.788Z,2.13
2019-05-07T08:07:35.701Z,1.80
2019-05-07T08:10:06.509Z,2.87
2019-05-07T08:12:36.432Z,2.13
2019-05-07T08:15:16.710Z,2.17
2019-05-07T08:17:41.772Z,1.80
2019-05-07T08:20:12.762Z,2.00
2019-05-07T08:22:42.833Z,1.90
2019-05-07T08:25:12.930Z,1.93
2019-05-07T08:27:42.917Z,2.47
2019-05-07T08:30:14.807Z,2.53
2019-05-07T08:32:58.669Z,2.23
2019-05-07T08:35:32.535Z,1.37
2019-05-07T08:38:02.316Z,1.50
2019-05-07T08:40:32.634Z,1.53
2019-05-07T08:43:03.225Z,1.67
2019-05-07T08:45:52.483Z,1.30
2019-05-07T08:48:33.574Z,1.50
2019-05-07T08:51:03.325Z,1.80
2019-05-07T08:53:33.092Z,1.33
2019-05-07T08:56:03.347Z,1.50
2019-05-07T08:58:33.349Z,1.70
2019-05-07T09:01:03.325Z,1.80
2019-05-07T09:03:45.188Z,1.43
2019-05-07T09:06:15.455Z,1.60
2019-05-07T09:08:45.210Z,1.50
2019-05-07T09:11:15.021Z,1.57
2019-05-07T09:13:44.785Z,1.27
2019-05-07T09:16:14.685Z,1.90
2019-05-07T09:18:44.500Z,1.70
2019-05-07T09:21:14.382Z,1.90
2019-05-07T09:23:44.205Z,1.57
2019-05-07T09:26:15.823Z,1.80
2019-05-07T09:28:56.093Z,2.07
2019-05-07T09:31:39.752Z,1.90
2019-05-07T09:34:11.682Z,1.93
2019-05-07T09:36:42.936Z,1.70
2019-05-07T09:39:12.804Z,1.70
2019-05-07T09:41:42.580Z,1.93
2019-05-07T09:44:12.398Z,1.80
2019-05-07T09:46:43.058Z,1.97
2019-05-07T09:49:13.759Z,1.70
2019-05-07T09:51:43.749Z,1.70
2019-05-07T09:54:13.554Z,2.10
2019-05-07T09:56:43.354Z,1.77
2019-05-07T09:59:13.163Z,1.50
2019-05-07T10:01:43.066Z,2.00
2019-05-07T10:04:12.998Z,1.77
2019-05-07T10:06:43.048Z,1.57
2019-05-07T10:09:12.911Z,1.70
2019-05-07T10:11:44.360Z,1.60
2019-05-07T10:14:14.209Z,1.43
2019-05-07T10:16:52.433Z,1.77
2019-05-07T10:19:22.339Z,1.50
2019-05-07T10:21:52.941Z,1.53
2019-05-07T10:24:23.109Z,1.70
2019-05-07T10:26:53.217Z,1.87
2019-05-07T10:29:23.184Z,2.10
2019-05-07T10:31:53.098Z,2.20
2019-05-07T10:34:22.973Z,1.60
2019-05-07T10:36:52.797Z,1.83
2019-05-07T10:39:22.538Z,1.97
2019-05-07T10:41:52.627Z,1.90
2019-05-07T10:44:24.116Z,1.63
2019-05-07T10:47:12.183Z,1.60
2019-05-07T10:49:49.389Z,1.70
2019-05-07T10:52:19.361Z,1.77
2019-05-07T10:54:59.462Z,1.87
2019-05-07T10:57:22.352Z,1.70
2019-05-07T10:59:52.464Z,2.00
2019-05-07T11:02:23.820Z,1.90
2019-05-07T11:04:53.591Z,1.63
2019-05-07T11:07:23.398Z,1.90
2019-05-07T11:09:53.139Z,1.53
2019-05-07T11:12:23.050Z,1.77
2019-05-07T11:14:52.876Z,1.60
2019-05-07T11:17:36.620Z,1.50
2019-05-07T11:20:08.023Z,1.93
2019-05-07T11:22:37.917Z,1.30
2019-05-07T11:25:08.129Z,1.60
2019-05-07T11:27:37.989Z,1.67
2019-05-07T11:30:08.774Z,1.90
2019-05-07T11:32:38.584Z,1.47
2019-05-07T11:35:08.791Z,1.70
2019-05-07T11:37:38.692Z,1.60
2019-05-07T11:40:09.856Z,2.40
2019-05-07T11:42:57.637Z,1.80
2019-05-07T11:45:32.245Z,2.00
2019-05-07T11:48:04.285Z,2.07
2019-05-07T11:50:59.670Z,2.10
2019-05-07T11:53:21.980Z,1.70
2019-05-07T11:55:52.425Z,1.60
2019-05-07T11:58:22.548Z,1.80
2019-05-07T12:00:58.425Z,1.17
2019-05-07T12:03:28.150Z,1.70
2019-05-07T12:05:59.531Z,1.70
2019-05-07T12:08:42.813Z,2.03
2019-05-07T12:11:04.475Z,1.57
2019-05-07T12:13:34.278Z,1.13
2019-05-07T12:16:04.110Z,1.27
2019-05-07T12:18:33.845Z,1.63
2019-05-07T12:21:16.710Z,1.53
2019-05-07T12:23:35.125Z,1.53
2019-05-07T12:26:05.040Z,1.73
2019-05-07T12:28:35.248Z,1.53
2019-05-07T12:31:06.875Z,1.70
2019-05-07T12:33:47.019Z,1.50
2019-05-07T12:36:16.889Z,1.60
2019-05-07T12:38:46.643Z,1.60
2019-05-07T12:41:33.679Z,1.50
2019-05-07T12:44:06.697Z,1.50
2019-05-07T12:46:37.189Z,1.40
2019-05-07T12:49:07.187Z,1.53
2019-05-07T12:51:38.669Z,1.80
2019-05-07T12:54:28.609Z,1.43
2019-05-07T12:56:58.411Z,1.47
2019-05-07T12:59:28.182Z,1.00
2019-05-07T13:02:21.815Z,1.07
2019-05-07T13:04:47.011Z,1.30
2019-05-07T13:07:25.308Z,1.17
2019-05-07T13:09:55.433Z,1.40
2019-05-07T13:12:25.156Z,1.30
2019-05-07T13:14:55.024Z,1.43
2019-05-07T13:17:24.831Z,1.50
2019-05-07T13:19:54.636Z,1.80
2019-05-07T13:22:24.371Z,1.73
2019-05-07T13:24:54.098Z,1.77
2019-05-07T13:27:24.093Z,1.37
2019-05-07T13:29:53.911Z,1.30
2019-05-07T13:32:26.568Z,1.70
2019-05-07T13:34:57.194Z,1.20
2019-05-07T13:37:28.612Z,1.27
2019-05-07T13:40:00.093Z,1.60
2019-05-07T13:42:32.102Z,1.30
2019-05-07T13:45:03.575Z,1.50
2019-05-07T13:47:35.624Z,1.20
2019-05-07T13:50:08.074Z,1.33
2019-05-07T13:55:43.359Z,1.63
2019-05-07T13:58:18.838Z,1.07
2019-05-07T14:01:05.422Z,1.30
2019-05-07T14:03:35.310Z,1.50
2019-05-07T14:06:05.193Z,1.60
2019-05-07T14:08:37.640Z,1.50
2019-05-07T14:11:07.626Z,1.67
2019-05-07T14:13:38.307Z,1.60
2019-05-07T14:16:12.801Z,1.90
2019-05-07T14:18:42.667Z,1.70
2019-05-07T14:21:13.035Z,1.47
2019-05-07T14:23:42.987Z,1.83
2019-05-07T14:26:12.970Z,1.40
2019-05-07T14:28:43.043Z,1.80
2019-05-07T14:31:12.929Z,2.07
2019-05-07T14:34:02.380Z,1.77
2019-05-07T14:36:50.450Z,1.70
2019-05-07T14:39:22.009Z,1.63
2019-05-07T14:41:53.518Z,1.80
2019-05-07T14:44:23.405Z,1.70
2019-05-07T14:46:54.386Z,3.60
2019-05-07T14:49:24.630Z,1.83
2019-05-07T14:51:54.710Z,2.13
2019-05-07T14:54:24.575Z,1.37
2019-05-07T14:56:54.360Z,1.53
2019-05-07T14:59:24.179Z,1.90
2019-05-07T15:01:54.031Z,1.60
2019-05-07T15:04:23.834Z,1.53
2019-05-07T15:06:53.656Z,1.70
2019-05-07T15:09:23.408Z,1.77
2019-05-07T15:11:53.169Z,1.83
2019-05-07T15:14:22.982Z,1.83
2019-05-07T15:16:54.712Z,1.37
2019-05-07T15:19:24.393Z,1.40
2019-05-07T15:21:55.879Z,1.37
2019-05-07T15:24:25.711Z,1.70
2019-05-07T15:26:56.721Z,1.37
2019-05-07T15:29:26.645Z,1.60
2019-05-07T15:31:58.094Z,1.33
2019-05-07T15:34:27.834Z,1.40
2019-05-07T15:36:57.595Z,1.50
2019-05-07T15:39:27.347Z,1.30
2019-05-07T15:41:57.117Z,1.27
2019-05-07T15:44:27.222Z,1.80
2019-05-07T15:46:58.672Z,1.50
2019-05-07T15:49:28.447Z,1.60
2019-05-07T15:52:01.774Z,1.70
2019-05-07T15:54:32.605Z,1.50
2019-05-07T15:57:03.990Z,1.33
2019-05-07T15:59:33.651Z,1.47
2019-05-07T16:02:12.343Z,1.33
2019-05-07T16:04:42.123Z,1.43
2019-05-07T16:07:13.277Z,1.30
2019-05-07T16:09:43.526Z,1.77
2019-05-07T16:12:14.854Z,1.33
2019-05-07T16:14:44.789Z,1.33
2019-05-07T16:17:24.981Z,1.30
2019-05-07T16:19:55.252Z,1.53
2019-05-07T16:22:26.627Z,1.50
2019-05-07T16:24:56.601Z,1.40
2019-05-07T16:27:26.264Z,1.50
2019-05-07T16:29:56.129Z,1.30
2019-05-07T16:32:25.883Z,1.47
2019-05-07T16:34:55.654Z,1.30
2019-05-07T16:37:25.423Z,1.47
2019-05-07T16:39:55.113Z,1.33
2019-05-07T16:42:24.816Z,1.53
2019-05-07T16:44:54.507Z,1.40
2019-05-07T16:47:24.214Z,1.37
2019-05-07T16:49:53.983Z,1.47
2019-05-07T16:52:23.699Z,1.17
2019-05-07T16:54:53.359Z,1.33
2019-05-07T16:57:27.659Z,1.30
2019-05-07T16:59:57.557Z,1.27
2019-05-07T17:02:28.983Z,1.80
2019-05-07T17:05:09.314Z,1.60
2019-05-07T17:07:43.540Z,1.20
2019-05-07T17:10:13.793Z,1.50
2019-05-07T17:12:45.229Z,1.37
2019-05-07T17:15:15.072Z,1.47
2019-05-07T17:17:44.840Z,1.17
2019-05-07T17:20:15.005Z,1.70
2019-05-07T17:22:47.477Z,1.23
2019-05-07T17:25:35.973Z,1.27
2019-05-07T17:28:07.131Z,1.63
2019-05-07T17:30:37.896Z,1.23
2019-05-07T17:33:07.748Z,1.30
2019-05-07T17:35:37.434Z,1.40
2019-05-07T17:38:09.824Z,1.60
2019-05-07T17:40:38.602Z,1.60
2019-05-07T17:43:08.370Z,1.60
2019-05-07T17:45:38.120Z,1.40
2019-05-07T17:48:07.935Z,1.50
2019-05-07T17:50:39.265Z,1.47
2019-05-07T17:53:08.935Z,1.70
2019-05-07T17:55:38.611Z,1.40
2019-05-07T17:58:08.368Z,1.53
2019-05-07T18:00:38.584Z,1.43
2019-05-07T18:03:09.964Z,1.73
2019-05-07T18:05:39.982Z,1.30
2019-05-07T18:08:09.633Z,1.57
2019-05-07T18:10:39.426Z,1.70
2019-05-07T18:13:09.200Z,2.23
2019-05-07T18:15:38.889Z,1.87
2019-05-07T18:18:12.849Z,2.10
2019-05-07T18:20:42.348Z,4.63
2019-05-07T18:23:16.804Z,2.70
2019-05-07T18:25:43.753Z,2.20
2019-05-07T18:28:16.028Z,2.40
2019-05-07T18:30:44.886Z,1.60
2019-05-07T18:33:16.226Z,1.60
2019-05-07T18:35:47.651Z,1.57
2019-05-07T18:38:17.317Z,1.70
2019-05-07T18:40:47.092Z,1.77
2019-05-07T18:43:16.822Z,1.70
2019-05-07T18:45:46.503Z,2.00
2019-05-07T18:48:16.207Z,1.70
2019-05-07T18:50:45.937Z,1.87
2019-05-07T18:53:15.633Z,1.80
2019-05-07T18:55:45.296Z,1.77
2019-05-07T18:58:15.165Z,1.77
2019-05-07T19:00:58.648Z,2.23
2019-05-07T19:03:28.432Z,1.90
2019-05-07T19:05:58.233Z,2.33
2019-05-07T19:08:35.607Z,2.40
2019-05-07T19:11:05.859Z,2.30
2019-05-07T19:13:35.794Z,2.50
2019-05-07T19:16:05.657Z,1.93
2019-05-07T19:18:35.431Z,2.17
2019-05-07T19:21:06.861Z,2.10
2019-05-07T19:23:36.837Z,2.47
2019-05-07T19:26:06.768Z,1.90
2019-05-07T19:28:36.632Z,2.50
2019-05-07T19:31:06.533Z,4.20
2019-05-07T19:33:36.454Z,2.47
2019-05-07T19:36:06.313Z,3.40
2019-05-07T19:38:36.455Z,3.17
2019-05-07T19:41:06.243Z,2.50
2019-05-07T19:43:36.475Z,1.67
2019-05-07T19:46:06.235Z,1.70
2019-05-07T19:48:36.169Z,1.63
2019-05-07T19:51:06.263Z,2.20
2019-05-07T19:53:36.080Z,1.83
2019-05-07T19:56:16.553Z,1.83
2019-05-07T19:58:46.522Z,1.93
2019-05-07T20:01:18.054Z,1.97
2019-05-07T20:03:49.096Z,2.00
2019-05-07T20:06:18.933Z,1.27
2019-05-07T20:08:48.657Z,2.20
2019-05-07T20:11:22.840Z,1.90
2019-05-07T20:13:52.577Z,2.33
2019-05-07T20:16:23.149Z,2.00
2019-05-07T20:18:52.969Z,1.90
2019-05-07T20:21:23.110Z,1.80
2019-05-07T20:23:52.897Z,2.47
2019-05-07T20:26:23.915Z,1.90
2019-05-07T20:28:53.652Z,2.23
2019-05-07T20:31:23.481Z,2.10
2019-05-07T20:33:53.399Z,2.30
2019-05-07T20:36:23.149Z,2.20
2019-05-07T20:38:52.999Z,3.00
2019-05-07T20:41:23.437Z,2.03
2019-05-07T20:43:53.248Z,1.93
2019-05-07T20:46:22.947Z,2.90
2019-05-07T20:48:52.752Z,2.37
2019-05-07T20:51:23.235Z,3.20
2019-05-07T20:53:57.243Z,2.90
2019-05-07T20:56:37.920Z,2.60
2019-05-07T20:59:07.739Z,2.50
2019-05-07T21:01:37.415Z,2.30
2019-05-07T21:04:07.231Z,2.90
2019-05-07T21:06:37.140Z,5.80
2019-05-07T21:09:08.556Z,13.40
2019-05-07T21:11:38.251Z,11.30
2019-05-07T21:14:07.938Z,12.60
2019-05-07T21:16:37.642Z,10.30
2019-05-07T21:19:07.310Z,7.50
2019-05-07T21:21:37.214Z,6.77
2019-05-07T21:24:07.026Z,6.57
2019-05-07T21:26:36.862Z,5.57
2019-05-07T21:29:06.522Z,5.30
2019-05-07T21:31:36.282Z,5.73
2019-05-07T21:34:06.021Z,5.13
2019-05-07T21:36:38.678Z,5.07
2019-05-07T21:39:08.489Z,5.47
2019-05-07T21:41:38.215Z,5.47
2019-05-07T21:44:07.873Z,4.53
2019-05-07T21:46:37.639Z,5.03
2019-05-07T21:49:07.303Z,4.60
2019-05-07T21:51:37.063Z,4.83
2019-05-07T21:54:23.692Z,4.30
2019-05-07T21:57:04.378Z,4.43
2019-05-07T21:59:35.940Z,4.27
2019-05-07T22:02:08.507Z,4.07
2019-05-07T22:04:38.170Z,4.20
2019-05-07T22:07:08.015Z,4.23
2019-05-07T22:09:37.765Z,4.10
2019-05-07T22:12:07.589Z,4.50
2019-05-07T22:14:37.266Z,4.07
2019-05-07T22:17:06.935Z,3.97
2019-05-07T22:19:36.620Z,4.60
2019-05-07T22:22:06.356Z,4.17
2019-05-07T22:24:36.138Z,4.13
2019-05-07T22:27:05.809Z,4.23
2019-05-07T22:29:35.509Z,4.07
2019-05-07T22:32:16.039Z,4.50
2019-05-07T22:34:47.383Z,4.03
2019-05-07T22:37:17.116Z,4.07
2019-05-07T22:39:46.911Z,4.10
2019-05-07T22:42:16.558Z,4.20
2019-05-07T22:44:46.310Z,3.57
2019-05-07T22:47:19.106Z,3.80
2019-05-07T22:49:53.482Z,3.43
2019-05-07T22:52:22.632Z,3.67
2019-05-07T22:54:52.410Z,3.33
2019-05-07T22:57:29.519Z,3.33
2019-05-07T22:59:59.263Z,3.43
2019-05-07T23:02:31.952Z,3.13
2019-05-07T23:05:02.866Z,3.50
2019-05-07T23:07:32.964Z,3.20
2019-05-07T23:10:03.021Z,3.10
2019-05-07T23:12:33.008Z,3.30
2019-05-07T23:15:02.902Z,2.80
2019-05-07T23:17:32.779Z,3.43
2019-05-07T23:20:02.757Z,2.93
2019-05-07T23:22:32.551Z,3.20
2019-05-07T23:25:02.357Z,3.13
2019-05-07T23:27:32.551Z,3.07
2019-05-07T23:30:02.754Z,3.20
2019-05-07T23:32:33.044Z,3.47
2019-05-07T23:35:02.988Z,3.27
2019-05-07T23:37:33.227Z,3.07
2019-05-07T23:40:14.171Z,3.10
2019-05-07T23:42:48.042Z,2.90
2019-05-07T23:45:17.799Z,3.10
2019-05-07T23:47:47.534Z,2.50
2019-05-07T23:50:17.468Z,2.70
2019-05-07T23:55:31.772Z,2.63
2019-05-07T23:58:03.108Z,3.00
